createdAt,value
2022-08-10T00:01:51.956Z,5.50
2022-08-10T00:04:22.265Z,6.43
2022-08-10T00:06:51.946Z,5.13
2022-08-10T00:09:20.173Z,4.70
2022-08-10T00:11:50.181Z,5.33
2022-08-10T00:14:18.734Z,5.73
2022-08-10T00:16:46.849Z,5.57
2022-08-10T00:19:16.676Z,5.20
2022-08-10T00:21:45.931Z,5.10
2022-08-10T00:24:14.310Z,5.70
2022-08-10T00:28:01.817Z,5.43
2022-08-10T00:29:32.190Z,5.87
2022-08-10T00:32:00.426Z,4.93
2022-08-10T00:34:29.107Z,5.87
2022-08-10T00:36:57.940Z,5.97
2022-08-10T00:39:26.355Z,5.57
2022-08-10T00:42:01.967Z,5.30
2022-08-10T00:44:39.679Z,6.20
2022-08-10T00:47:15.370Z,5.50
2022-08-10T00:49:57.237Z,5.00
2022-08-10T00:52:27.177Z,5.60
2022-08-10T00:54:56.957Z,7.17
2022-08-10T00:57:25.620Z,5.53
2022-08-10T00:59:59.551Z,5.80
2022-08-10T01:02:32.768Z,5.60
2022-08-10T01:05:04.691Z,5.20
2022-08-10T01:07:49.217Z,5.30
2022-08-10T01:10:29.458Z,5.40
2022-08-10T01:13:04.020Z,7.00
2022-08-10T01:15:40.206Z,6.23
2022-08-10T01:18:14.490Z,6.30
2022-08-10T01:20:57.782Z,5.80
2022-08-10T01:24:02.273Z,5.67
2022-08-10T01:26:50.630Z,5.73
2022-08-10T01:29:51.148Z,5.80
2022-08-10T01:32:25.844Z,5.70
2022-08-10T01:35:01.556Z,5.70
2022-08-10T01:37:39.739Z,6.37
2022-08-10T01:40:13.491Z,5.97
2022-08-10T01:42:48.069Z,5.77
2022-08-10T01:45:18.437Z,7.50
2022-08-10T01:48:06.308Z,5.23
2022-08-10T01:50:59.165Z,5.27
2022-08-10T01:53:40.865Z,5.47
2022-08-10T01:56:11.888Z,5.93
2022-08-10T01:58:40.757Z,6.23
2022-08-10T02:01:16.688Z,6.13
2022-08-10T02:04:04.007Z,4.80
2022-08-10T02:06:38.196Z,5.80
2022-08-10T02:09:08.806Z,5.80
2022-08-10T02:11:55.827Z,5.27
2022-08-10T02:14:33.352Z,6.20
2022-08-10T02:17:07.449Z,6.40
2022-08-10T02:19:38.159Z,5.40
2022-08-10T02:22:34.835Z,5.23
2022-08-10T02:24:58.673Z,4.70
2022-08-10T02:27:29.068Z,5.97
2022-08-10T02:29:59.057Z,6.23
2022-08-10T02:32:36.083Z,5.57
2022-08-10T02:35:07.747Z,5.23
2022-08-10T02:37:40.158Z,5.63
2022-08-10T02:45:13.649Z,6.80
2022-08-10T02:45:24.537Z,6.00
2022-08-10T02:46:02.375Z,6.23
2022-08-10T02:48:39.003Z,5.90
2022-08-10T02:51:14.694Z,4.80
2022-08-10T02:53:54.923Z,5.13
2022-08-10T02:56:32.399Z,6.40
2022-08-10T02:59:06.748Z,5.73
2022-08-10T03:01:38.286Z,6.30
2022-08-10T03:04:11.158Z,5.27
2022-08-10T03:06:43.947Z,5.93
2022-08-10T03:09:16.874Z,6.47
2022-08-10T03:12:35.531Z,5.37
2022-08-10T03:14:37.319Z,5.60
2022-08-10T03:17:06.535Z,6.33
2022-08-10T03:20:35.674Z,6.60
2022-08-10T03:22:26.841Z,5.40
2022-08-10T03:24:56.162Z,6.33
2022-08-10T03:27:25.281Z,5.90
2022-08-10T03:30:28.562Z,6.00
2022-08-10T03:32:43.656Z,7.53
2022-08-10T03:35:14.330Z,6.27
2022-08-10T03:37:42.604Z,6.80
2022-08-10T03:40:11.385Z,7.00
2022-08-10T03:42:41.785Z,7.20
2022-08-10T03:45:11.528Z,11.07
2022-08-10T03:47:41.632Z,6.53
2022-08-10T03:50:45.770Z,10.43
2022-08-10T03:53:02.430Z,6.40
2022-08-10T03:56:28.981Z,6.30
2022-08-10T03:58:19.920Z,5.57
2022-08-10T04:00:51.159Z,6.50
2022-08-10T04:03:19.487Z,6.07
2022-08-10T04:05:49.413Z,6.40
2022-08-10T04:08:17.762Z,7.47
2022-08-10T04:10:45.870Z,7.40
2022-08-10T04:13:13.984Z,7.17
2022-08-10T04:15:42.112Z,7.00
2022-08-10T04:18:10.241Z,6.70
2022-08-10T04:20:41.783Z,6.70
2022-08-10T04:23:16.388Z,5.30
2022-08-10T04:25:45.055Z,6.57
2022-08-10T04:28:13.350Z,7.10
2022-08-10T04:30:42.834Z,6.43
2022-08-10T04:33:15.112Z,6.60
2022-08-10T04:35:44.381Z,6.50
2022-08-10T04:38:15.460Z,7.20
2022-08-10T04:40:44.320Z,7.17
2022-08-10T04:43:13.592Z,6.60
2022-08-10T04:45:48.832Z,8.77
2022-08-10T04:48:36.749Z,6.47
2022-08-10T04:51:11.060Z,6.00
2022-08-10T04:54:04.705Z,6.53
2022-08-10T04:56:39.196Z,6.57
2022-08-10T04:59:09.127Z,6.80
2022-08-10T05:02:12.477Z,6.30
2022-08-10T05:04:35.487Z,7.00
2022-08-10T05:07:07.936Z,6.10
2022-08-10T05:10:00.494Z,6.53
2022-08-10T05:12:25.774Z,6.27
2022-08-10T05:14:54.825Z,6.90
2022-08-10T05:17:23.754Z,6.60
2022-08-10T05:20:05.157Z,7.10
2022-08-10T05:22:39.568Z,6.10
2022-08-10T05:25:12.050Z,6.30
2022-08-10T05:27:41.057Z,6.37
2022-08-10T05:30:11.627Z,10.87
2022-08-10T05:32:57.508Z,8.40
2022-08-10T05:35:28.547Z,7.20
2022-08-10T05:38:11.411Z,7.03
2022-08-10T05:40:46.797Z,7.30
2022-08-10T05:43:18.018Z,6.60
2022-08-10T05:46:17.901Z,9.37
2022-08-10T05:48:42.042Z,7.13
2022-08-10T05:51:24.075Z,6.57
2022-08-10T05:54:03.407Z,7.00
2022-08-10T05:56:56.843Z,7.17
2022-08-10T06:00:35.615Z,6.93
2022-08-10T06:02:31.478Z,6.53
2022-08-10T06:05:07.926Z,7.33
2022-08-10T06:07:40.131Z,6.67
2022-08-10T06:10:12.292Z,6.40
2022-08-10T06:12:53.965Z,7.30
2022-08-10T06:15:50.637Z,5.90
2022-08-10T06:18:15.389Z,6.53
2022-08-10T06:20:44.468Z,6.83
2022-08-10T06:23:13.844Z,6.40
2022-08-10T06:26:11.213Z,7.30
2022-08-10T06:28:35.785Z,6.70
2022-08-10T06:31:05.363Z,6.67
2022-08-10T06:33:36.225Z,6.20
2022-08-10T06:36:07.141Z,6.10
2022-08-10T06:38:37.590Z,5.97
2022-08-10T06:41:10.736Z,6.33
2022-08-10T06:43:46.484Z,6.37
2022-08-10T06:46:18.260Z,7.63
2022-08-10T06:48:52.153Z,6.10
2022-08-10T06:51:24.937Z,6.57
2022-08-10T06:53:55.503Z,6.37
2022-08-10T06:56:35.801Z,6.00
2022-08-10T06:59:13.412Z,6.37
2022-08-10T07:01:54.249Z,5.90
2022-08-10T07:04:32.863Z,5.60
2022-08-10T07:07:04.312Z,6.93
2022-08-10T07:09:34.391Z,6.23
2022-08-10T07:12:08.581Z,5.87
2022-08-10T07:14:42.800Z,7.60
2022-08-10T07:17:16.049Z,8.20
2022-08-10T07:19:52.386Z,6.17
2022-08-10T07:23:08.670Z,6.80
2022-08-10T07:25:16.041Z,7.63
2022-08-10T07:27:58.781Z,6.17
2022-08-10T07:30:32.143Z,7.53
2022-08-10T07:33:02.497Z,7.33
2022-08-10T07:35:41.842Z,7.70
2022-08-10T07:38:14.045Z,7.20
2022-08-10T07:40:45.038Z,7.20
2022-08-10T07:43:14.652Z,6.57
2022-08-10T07:45:44.245Z,6.90
2022-08-10T07:48:16.589Z,6.57
2022-08-10T07:50:47.276Z,7.43
2022-08-10T07:53:22.536Z,6.27
2022-08-10T07:56:03.588Z,7.73
2022-08-10T07:58:47.311Z,7.07
2022-08-10T08:01:24.495Z,6.63
2022-08-10T08:04:05.275Z,8.00
2022-08-10T08:06:40.303Z,5.67
2022-08-10T08:09:09.150Z,7.10
2022-08-10T08:11:37.805Z,6.80
2022-08-10T08:14:08.677Z,5.60
2022-08-10T08:16:41.288Z,7.37
2022-08-10T08:19:27.913Z,7.20
2022-08-10T08:24:10.686Z,6.67
2022-08-10T08:24:48.691Z,6.50
2022-08-10T08:27:22.158Z,7.97
2022-08-10T08:29:52.670Z,6.00
2022-08-10T08:32:24.499Z,8.97
2022-08-10T08:34:57.457Z,5.87
2022-08-10T08:38:32.470Z,6.60
2022-08-10T08:40:22.280Z,6.57
2022-08-10T08:43:23.176Z,6.07
2022-08-10T08:46:21.713Z,6.47
2022-08-10T08:50:05.279Z,5.60
2022-08-10T08:52:18.603Z,5.93
2022-08-10T08:54:58.308Z,6.30
2022-08-10T08:57:50.514Z,5.40
2022-08-10T09:00:30.618Z,6.20
2022-08-10T09:03:17.919Z,5.30
2022-08-10T09:05:59.347Z,5.07
2022-08-10T09:08:57.696Z,5.20
2022-08-10T09:11:39.779Z,4.73
2022-08-10T09:14:17.493Z,4.77
2022-08-10T09:17:01.341Z,5.20
2022-08-10T09:19:36.551Z,3.93
2022-08-10T09:22:28.051Z,4.90
2022-08-10T09:25:02.016Z,4.87
2022-08-10T09:27:37.465Z,5.13
2022-08-10T09:30:10.534Z,4.50
2022-08-10T09:36:15.120Z,3.97
2022-08-10T09:36:28.402Z,4.47
2022-08-10T09:38:47.299Z,3.80
2022-08-10T09:41:26.855Z,4.30
2022-08-10T09:44:06.588Z,4.10
2022-08-10T09:46:57.841Z,4.30
2022-08-10T09:49:54.559Z,3.97
2022-08-10T09:52:49.497Z,3.53
2022-08-10T09:56:18.015Z,3.60
2022-08-10T09:58:39.327Z,3.67
2022-08-10T10:01:56.312Z,3.83
2022-08-10T10:04:11.443Z,4.13
2022-08-10T10:06:45.055Z,3.20
2022-08-10T10:09:26.819Z,4.03
2022-08-10T10:12:13.018Z,3.43
2022-08-10T10:15:24.202Z,2.90
2022-08-10T10:18:05.920Z,3.90
2022-08-10T10:20:38.659Z,3.30
2022-08-10T10:23:17.380Z,3.40
2022-08-10T10:25:59.387Z,3.67
2022-08-10T10:31:34.990Z,4.27
2022-08-10T10:34:12.139Z,3.53
2022-08-10T10:36:43.015Z,4.50
2022-08-10T10:39:14.533Z,3.10
2022-08-10T10:41:56.210Z,3.70
2022-08-10T10:44:48.268Z,3.20
2022-08-10T10:47:33.735Z,4.00
2022-08-10T10:50:07.998Z,4.53
2022-08-10T10:52:46.288Z,4.40
2022-08-10T10:55:19.267Z,3.10
2022-08-10T10:58:00.305Z,3.30
2022-08-10T11:00:38.153Z,2.73
2022-08-10T11:03:34.386Z,2.87
2022-08-10T11:06:11.396Z,2.90
2022-08-10T11:08:45.574Z,2.90
2022-08-10T11:11:27.008Z,3.40
2022-08-10T11:14:26.092Z,2.97
2022-08-10T11:17:06.448Z,2.70
2022-08-10T11:20:01.685Z,2.50
2022-08-10T11:22:36.895Z,2.73
2022-08-10T11:25:15.909Z,2.97
2022-08-10T11:27:50.634Z,2.97
2022-08-10T11:30:22.188Z,3.87
2022-08-10T11:33:04.682Z,2.90
2022-08-10T11:35:41.996Z,2.67
2022-08-10T11:38:34.435Z,5.40
2022-08-10T11:42:06.456Z,3.30
2022-08-10T11:44:09.420Z,2.73
2022-08-10T11:46:43.736Z,2.80
2022-08-10T11:49:18.850Z,2.80
2022-08-10T11:51:51.236Z,2.33
2022-08-10T11:54:38.009Z,2.50
2022-08-10T11:57:06.388Z,3.30
2022-08-10T11:59:57.984Z,6.33
2022-08-10T12:02:30.409Z,3.50
2022-08-10T12:05:04.490Z,2.10
2022-08-10T12:10:03.728Z,2.70
2022-08-10T12:10:24.893Z,2.33
2022-08-10T12:12:59.761Z,3.60
2022-08-10T12:15:35.754Z,2.77
2022-08-10T12:18:08.244Z,2.60
2022-08-10T12:20:40.266Z,2.13
2022-08-10T12:23:14.844Z,2.67
2022-08-10T12:25:56.552Z,2.10
2022-08-10T12:28:50.250Z,2.50
2022-08-10T12:31:26.134Z,3.00
2022-08-10T12:34:07.428Z,2.80
2022-08-10T12:36:42.186Z,3.13
2022-08-10T12:39:17.670Z,2.37
2022-08-10T12:41:52.542Z,2.50
2022-08-10T12:44:41.331Z,2.23
2022-08-10T12:47:18.299Z,2.00
2022-08-10T12:50:29.499Z,2.53
2022-08-10T12:52:52.992Z,1.77
2022-08-10T12:55:23.498Z,2.20
2022-08-10T12:57:57.411Z,2.40
2022-08-10T13:00:31.924Z,2.20
2022-08-10T13:03:01.861Z,2.30
2022-08-10T13:06:00.348Z,2.67
2022-08-10T13:08:40.936Z,1.90
2022-08-10T13:11:26.275Z,2.30
2022-08-10T13:14:09.106Z,2.20
2022-08-10T13:16:39.164Z,2.33
2022-08-10T13:19:08.988Z,2.50
2022-08-10T13:21:40.330Z,2.37
2022-08-10T13:24:13.987Z,2.67
2022-08-10T13:27:24.768Z,2.57
2022-08-10T13:29:43.368Z,2.67
2022-08-10T13:32:13.041Z,2.07
2022-08-10T13:34:47.213Z,2.30
2022-08-10T13:37:17.990Z,2.57
2022-08-10T13:39:59.856Z,2.33
2022-08-10T13:42:32.697Z,2.30
2022-08-10T13:45:08.347Z,2.60
2022-08-10T13:47:48.590Z,2.67
2022-08-10T13:50:33.164Z,2.60
2022-08-10T13:53:11.713Z,2.40
2022-08-10T13:55:54.828Z,2.30
2022-08-10T13:58:27.453Z,2.13
2022-08-10T14:00:56.820Z,2.50
2022-08-10T14:03:26.864Z,2.23
2022-08-10T14:05:58.335Z,2.20
2022-08-10T14:08:30.347Z,2.37
2022-08-10T14:11:11.728Z,2.50
2022-08-10T14:13:45.469Z,2.20
2022-08-10T14:16:14.467Z,2.10
2022-08-10T14:18:45.796Z,2.60
2022-08-10T14:21:14.735Z,2.87
2022-08-10T14:23:53.205Z,3.00
2022-08-10T14:26:26.245Z,3.00
2022-08-10T14:28:57.368Z,1.97
2022-08-10T14:31:33.707Z,2.07
2022-08-10T14:34:08.272Z,3.03
2022-08-10T14:36:43.300Z,2.60
2022-08-10T14:39:20.759Z,2.90
2022-08-10T14:42:03.156Z,2.20
2022-08-10T14:44:46.488Z,2.57
2022-08-10T14:47:52.691Z,2.60
2022-08-10T14:50:07.447Z,2.43
2022-08-10T14:52:44.091Z,3.80
2022-08-10T14:55:19.510Z,3.70
2022-08-10T14:58:17.264Z,2.73
2022-08-10T15:00:43.036Z,2.70
2022-08-10T15:03:58.425Z,2.50
2022-08-10T15:06:09.349Z,2.67
2022-08-10T15:08:48.004Z,2.40
2022-08-10T15:12:13.733Z,2.60
2022-08-10T15:14:41.499Z,2.60
2022-08-10T15:16:58.266Z,2.30
2022-08-10T15:19:34.200Z,2.20
2022-08-10T15:22:36.973Z,2.80
2022-08-10T15:25:19.105Z,2.50
2022-08-10T15:27:56.436Z,2.50
2022-08-10T15:30:31.626Z,2.53
2022-08-10T15:34:00.247Z,2.67
2022-08-10T15:36:29.900Z,2.20
2022-08-10T15:39:01.705Z,3.33
2022-08-10T15:41:57.406Z,2.43
2022-08-10T15:44:38.529Z,2.33
2022-08-10T15:47:12.042Z,2.73
2022-08-10T15:49:49.091Z,2.50
2022-08-10T15:52:39.686Z,2.47
2022-08-10T15:55:43.682Z,2.13
2022-08-10T15:58:07.710Z,1.97
2022-08-10T16:00:39.792Z,2.73
2022-08-10T16:03:17.236Z,2.53
2022-08-10T16:06:02.225Z,2.83
2022-08-10T16:08:56.088Z,3.07
2022-08-10T16:11:38.270Z,2.07
2022-08-10T16:14:20.504Z,2.03
2022-08-10T16:16:55.105Z,2.10
2022-08-10T16:19:27.211Z,1.97
2022-08-10T16:22:00.890Z,2.10
2022-08-10T16:24:35.295Z,2.27
2022-08-10T16:27:07.512Z,2.23
2022-08-10T16:29:55.674Z,2.87
2022-08-10T16:32:25.399Z,1.93
2022-08-10T16:34:57.741Z,2.33
2022-08-10T16:37:57.558Z,3.00
2022-08-10T16:40:25.939Z,2.33
2022-08-10T16:42:55.557Z,2.07
2022-08-10T16:45:30.562Z,1.80
2022-08-10T16:47:59.349Z,1.80
2022-08-10T16:50:33.485Z,1.80
2022-08-10T16:53:03.417Z,2.07
2022-08-10T16:55:48.321Z,1.80
2022-08-10T16:58:21.782Z,1.93
2022-08-10T17:00:51.765Z,1.63
2022-08-10T17:04:06.701Z,1.87
2022-08-10T17:06:23.467Z,2.13
2022-08-10T17:08:54.819Z,2.00
2022-08-10T17:11:28.774Z,2.27
2022-08-10T17:13:58.108Z,2.20
2022-08-10T17:16:28.558Z,2.33
2022-08-10T17:18:59.412Z,2.10
2022-08-10T17:21:36.195Z,2.03
2022-08-10T17:24:06.520Z,2.13
2022-08-10T17:26:37.840Z,2.37
2022-08-10T17:29:17.482Z,2.10
2022-08-10T17:32:07.626Z,2.00
2022-08-10T17:34:41.065Z,2.30
2022-08-10T17:37:17.516Z,2.67
2022-08-10T17:39:50.467Z,2.40
2022-08-10T17:42:24.611Z,2.53
2022-08-10T17:44:55.340Z,2.33
2022-08-10T17:47:27.272Z,3.40
2022-08-10T17:49:57.577Z,2.87
2022-08-10T17:52:31.523Z,2.53
2022-08-10T17:55:04.116Z,2.50
2022-08-10T17:57:37.455Z,1.73
2022-08-10T18:00:08.674Z,2.43
2022-08-10T18:02:40.179Z,2.30
2022-08-10T18:05:10.801Z,2.30
2022-08-10T18:07:46.650Z,2.40
2022-08-10T18:10:18.836Z,2.40
2022-08-10T18:12:49.933Z,2.80
2022-08-10T18:15:23.085Z,2.47
2022-08-10T18:17:59.493Z,3.10
2022-08-10T18:20:34.749Z,2.07
2022-08-10T18:23:05.961Z,4.13
2022-08-10T18:25:37.510Z,2.83
2022-08-10T18:28:11.277Z,2.60
2022-08-10T18:30:48.114Z,3.37
2022-08-10T18:33:18.409Z,2.97
2022-08-10T18:35:47.288Z,2.60
2022-08-10T18:38:18.721Z,3.40
2022-08-10T18:40:54.289Z,2.73
2022-08-10T18:44:06.915Z,3.53
2022-08-10T18:46:20.579Z,2.60
2022-08-10T18:48:59.089Z,2.87
2022-08-10T18:51:32.909Z,2.20
2022-08-10T18:54:08.883Z,2.90
2022-08-10T18:56:58.925Z,2.53
2022-08-10T19:00:08.260Z,3.00
2022-08-10T19:02:55.219Z,2.90
2022-08-10T19:05:46.416Z,2.57
2022-08-10T19:08:49.085Z,3.30
2022-08-10T19:11:31.007Z,2.67
2022-08-10T19:14:05.141Z,3.70
2022-08-10T19:16:41.872Z,2.83
2022-08-10T19:19:26.709Z,3.10
2022-08-10T19:22:03.311Z,3.43
2022-08-10T19:24:43.233Z,4.30
2022-08-10T19:27:30.805Z,2.80
2022-08-10T19:30:12.345Z,3.07
2022-08-10T19:33:10.385Z,2.97
2022-08-10T19:36:03.508Z,2.63
2022-08-10T19:38:45.521Z,3.90
2022-08-10T19:41:30.930Z,7.73
2022-08-10T19:44:10.606Z,7.17
2022-08-10T19:46:43.460Z,6.50
2022-08-10T19:49:20.568Z,5.30
2022-08-10T19:51:56.477Z,3.73
2022-08-10T19:54:45.581Z,4.30
2022-08-10T19:57:29.407Z,3.27
2022-08-10T20:00:18.693Z,4.30
2022-08-10T20:03:08.119Z,3.30
2022-08-10T20:06:19.535Z,3.10
2022-08-10T20:08:43.659Z,3.70
2022-08-10T20:11:44.785Z,3.00
2022-08-10T20:14:22.177Z,3.00
2022-08-10T20:16:56.615Z,3.63
2022-08-10T20:19:53.632Z,2.90
2022-08-10T20:22:29.154Z,3.07
2022-08-10T20:25:02.871Z,3.23
2022-08-10T20:27:59.147Z,3.30
2022-08-10T20:30:28.351Z,3.13
2022-08-10T20:33:01.834Z,2.90
2022-08-10T20:35:36.105Z,2.93
2022-08-10T20:38:11.031Z,3.30
2022-08-10T20:40:46.313Z,3.13
2022-08-10T20:43:25.259Z,3.07
2022-08-10T20:46:11.170Z,3.00
2022-08-10T20:48:47.420Z,2.20
2022-08-10T20:51:20.224Z,2.93
2022-08-10T20:53:53.648Z,2.80
2022-08-10T20:56:34.232Z,3.80
2022-08-10T20:59:20.370Z,3.30
2022-08-10T21:02:05.770Z,3.20
2022-08-10T21:04:51.440Z,5.27
2022-08-10T21:08:00.417Z,3.17
2022-08-10T21:10:37.346Z,3.77
2022-08-10T21:13:30.749Z,4.13
2022-08-10T21:16:08.735Z,4.23
2022-08-10T21:18:53.374Z,3.40
2022-08-10T21:24:32.223Z,3.20
2022-08-10T21:25:41.746Z,3.10
2022-08-10T21:27:13.096Z,4.60
2022-08-10T21:29:56.462Z,3.97
2022-08-10T21:32:38.419Z,3.43
2022-08-10T21:35:36.729Z,3.27
2022-08-10T21:38:12.913Z,3.50
2022-08-10T21:41:18.142Z,3.47
2022-08-10T21:44:08.578Z,3.53
2022-08-10T21:47:12.711Z,3.33
2022-08-10T21:50:19.159Z,4.67
2022-08-10T21:53:44.048Z,3.00
2022-08-10T21:56:38.429Z,3.30
2022-08-10T21:59:30.584Z,4.00
2022-08-10T22:02:28.319Z,3.43
2022-08-10T22:05:18.891Z,3.20
2022-08-10T22:08:12.281Z,2.97
2022-08-10T22:11:02.917Z,3.20
2022-08-10T22:13:53.359Z,3.30
2022-08-10T22:16:45.520Z,2.90
2022-08-10T22:19:32.741Z,3.13
2022-08-10T22:22:27.390Z,2.90
2022-08-10T22:25:24.841Z,2.93
2022-08-10T22:28:17.403Z,3.30
2022-08-10T22:31:31.059Z,3.10
2022-08-10T22:34:33.601Z,3.43
2022-08-10T22:37:31.995Z,3.50
2022-08-10T22:40:23.948Z,3.53
2022-08-10T22:43:12.770Z,3.30
2022-08-10T22:46:07.190Z,3.40
2022-08-10T22:49:00.057Z,3.17
2022-08-10T22:51:37.034Z,3.07
2022-08-10T22:54:31.934Z,3.50
2022-08-10T22:57:19.143Z,3.40
2022-08-10T22:59:49.420Z,2.90
2022-08-10T23:02:35.950Z,3.17
2022-08-10T23:05:09.117Z,2.83
2022-08-10T23:07:46.351Z,2.90
2022-08-10T23:10:16.751Z,3.37
2022-08-10T23:12:49.954Z,3.27
2022-08-10T23:15:43.886Z,3.40
2022-08-10T23:18:37.450Z,3.67
2022-08-10T23:21:07.725Z,2.93
2022-08-10T23:23:40.683Z,2.93
2022-08-10T23:26:12.834Z,4.03
2022-08-10T23:29:03.273Z,2.90
2022-08-10T23:31:59.134Z,3.43
2022-08-10T23:34:30.149Z,3.37
2022-08-10T23:37:00.728Z,3.23
2022-08-10T23:39:33.617Z,2.57
2022-08-10T23:42:07.752Z,2.50
2022-08-10T23:44:43.828Z,3.40
2022-08-10T23:47:14.926Z,3.30
2022-08-10T23:49:47.403Z,2.50
2022-08-10T23:52:19.518Z,2.73
2022-08-10T23:54:52.723Z,3.13
2022-08-10T23:57:23.803Z,3.27
2022-08-10T23:59:54.017Z,3.40
